sensor_id;sensor_type;location;lat;lon;timestamp;temperature;humidity
25360;DHT22;13311;51.386;0.016;2023-10-09T00:02:18;20.40;89.80
25360;DHT22;13311;51.386;0.016;2023-10-09T00:07:18;20.30;90.00
25360;DHT22;13311;51.386;0.016;2023-10-09T00:12:21;20.20;90.10
25360;DHT22;13311;51.386;0.016;2023-10-09T00:17:25;20.20;90.00
25360;DHT22;13311;51.386;0.016;2023-10-09T00:22:31;20.10;90.10
25360;DHT22;13311;51.386;0.016;2023-10-09T00:27:39;20.00;90.40
25360;DHT22;13311;51.386;0.016;2023-10-09T00:32:43;20.00;90.30
25360;DHT22;13311;51.386;0.016;2023-10-09T00:38:02;20.00;90.40
25360;DHT22;13311;51.386;0.016;2023-10-09T00:43:14;20.00;90.20
25360;DHT22;13311;51.386;0.016;2023-10-09T00:48:15;19.90;90.50
25360;DHT22;13311;51.386;0.016;2023-10-09T00:53:23;19.80;90.70
25360;DHT22;13311;51.386;0.016;2023-10-09T00:58:31;19.90;90.70
25360;DHT22;13311;51.386;0.016;2023-10-09T01:03:36;19.80;90.80
25360;DHT22;13311;51.386;0.016;2023-10-09T01:08:40;19.80;90.80
25360;DHT22;13311;51.386;0.016;2023-10-09T01:13:41;19.70;90.80
25360;DHT22;13311;51.386;0.016;2023-10-09T01:18:55;19.70;90.80
25360;DHT22;13311;51.386;0.016;2023-10-09T01:23:59;19.70;90.80
25360;DHT22;13311;51.386;0.016;2023-10-09T01:29:02;19.60;90.80
25360;DHT22;13311;51.386;0.016;2023-10-09T01:34:04;19.60;90.80
25360;DHT22;13311;51.386;0.016;2023-10-09T01:39:10;19.60;90.80
25360;DHT22;13311;51.386;0.016;2023-10-09T01:44:25;19.50;90.70
25360;DHT22;13311;51.386;0.016;2023-10-09T01:49:35;19.30;90.70
25360;DHT22;13311;51.386;0.016;2023-10-09T01:54:38;19.30;90.90
25360;DHT22;13311;51.386;0.016;2023-10-09T01:59:42;19.30;90.90
25360;DHT22;13311;51.386;0.016;2023-10-09T02:04:44;19.30;90.60
25360;DHT22;13311;51.386;0.016;2023-10-09T02:09:45;19.30;90.50
25360;DHT22;13311;51.386;0.016;2023-10-09T02:14:47;19.40;90.50
25360;DHT22;13311;51.386;0.016;2023-10-09T02:19:48;19.40;90.50
25360;DHT22;13311;51.386;0.016;2023-10-09T02:24:50;19.40;90.40
25360;DHT22;13311;51.386;0.016;2023-10-09T02:29:51;19.30;90.40
25360;DHT22;13311;51.386;0.016;2023-10-09T02:34:52;19.30;90.50
25360;DHT22;13311;51.386;0.016;2023-10-09T02:39:54;19.40;90.60
25360;DHT22;13311;51.386;0.016;2023-10-09T02:44:55;19.30;90.60
25360;DHT22;13311;51.386;0.016;2023-10-09T02:49:59;19.30;90.70
25360;DHT22;13311;51.386;0.016;2023-10-09T02:55:07;19.30;90.70
25360;DHT22;13311;51.386;0.016;2023-10-09T03:00:13;19.20;90.80
25360;DHT22;13311;51.386;0.016;2023-10-09T03:05:29;19.20;90.90
25360;DHT22;13311;51.386;0.016;2023-10-09T03:10:29;19.30;91.00
25360;DHT22;13311;51.386;0.016;2023-10-09T03:15:31;19.30;91.00
25360;DHT22;13311;51.386;0.016;2023-10-09T03:20:36;19.20;91.10
25360;DHT22;13311;51.386;0.016;2023-10-09T03:25:37;19.20;91.20
25360;DHT22;13311;51.386;0.016;2023-10-09T03:30:38;19.20;91.20
25360;DHT22;13311;51.386;0.016;2023-10-09T03:35:40;19.30;91.10
25360;DHT22;13311;51.386;0.016;2023-10-09T03:40:45;19.30;91.10
25360;DHT22;13311;51.386;0.016;2023-10-09T03:45:49;19.30;91.00
25360;DHT22;13311;51.386;0.016;2023-10-09T03:50:53;19.30;90.90
25360;DHT22;13311;51.386;0.016;2023-10-09T03:56:09;19.40;90.90
25360;DHT22;13311;51.386;0.016;2023-10-09T04:01:14;19.40;90.80
25360;DHT22;13311;51.386;0.016;2023-10-09T04:06:28;19.40;90.70
25360;DHT22;13311;51.386;0.016;2023-10-09T04:11:32;19.40;90.80
25360;DHT22;13311;51.386;0.016;2023-10-09T04:16:33;19.40;90.70
25360;DHT22;13311;51.386;0.016;2023-10-09T04:21:34;19.40;90.70
25360;DHT22;13311;51.386;0.016;2023-10-09T04:26:36;19.40;90.60
25360;DHT22;13311;51.386;0.016;2023-10-09T04:31:37;19.30;90.60
25360;DHT22;13311;51.386;0.016;2023-10-09T04:36:38;19.30;90.40
25360;DHT22;13311;51.386;0.016;2023-10-09T04:41:47;19.30;90.50
25360;DHT22;13311;51.386;0.016;2023-10-09T04:46:51;19.30;90.40
25360;DHT22;13311;51.386;0.016;2023-10-09T04:52:10;19.20;90.50
25360;DHT22;13311;51.386;0.016;2023-10-09T04:57:19;19.20;90.40
25360;DHT22;13311;51.386;0.016;2023-10-09T05:02:19;19.10;90.40
25360;DHT22;13311;51.386;0.016;2023-10-09T05:07:20;19.00;90.50
25360;DHT22;13311;51.386;0.016;2023-10-09T05:12:23;18.90;90.60
25360;DHT22;13311;51.386;0.016;2023-10-09T05:17:29;18.90;90.30
25360;DHT22;13311;51.386;0.016;2023-10-09T05:22:34;18.90;90.30
25360;DHT22;13311;51.386;0.016;2023-10-09T05:27:38;18.90;90.40
25360;DHT22;13311;51.386;0.016;2023-10-09T05:32:56;18.80;90.30
25360;DHT22;13311;51.386;0.016;2023-10-09T05:38:19;18.60;90.60
25360;DHT22;13311;51.386;0.016;2023-10-09T05:43:24;18.60;90.50
25360;DHT22;13311;51.386;0.016;2023-10-09T05:48:43;18.40;90.40
25360;DHT22;13311;51.386;0.016;2023-10-09T05:53:44;18.30;90.80
25360;DHT22;13311;51.386;0.016;2023-10-09T05:58:44;18.20;90.80
25360;DHT22;13311;51.386;0.016;2023-10-09T06:04:04;18.00;91.00
25360;DHT22;13311;51.386;0.016;2023-10-09T06:09:15;18.00;91.20
25360;DHT22;13311;51.386;0.016;2023-10-09T06:14:16;18.00;91.10
25360;DHT22;13311;51.386;0.016;2023-10-09T06:19:46;17.80;91.20
25360;DHT22;13311;51.386;0.016;2023-10-09T06:24:49;17.70;91.40
25360;DHT22;13311;51.386;0.016;2023-10-09T06:29:52;17.80;91.30
25360;DHT22;13311;51.386;0.016;2023-10-09T06:35:13;17.70;91.30
25360;DHT22;13311;51.386;0.016;2023-10-09T06:40:17;17.70;91.50
25360;DHT22;13311;51.386;0.016;2023-10-09T06:45:36;17.70;91.50
25360;DHT22;13311;51.386;0.016;2023-10-09T06:50:46;17.50;91.70
25360;DHT22;13311;51.386;0.016;2023-10-09T06:55:56;17.40;92.10
25360;DHT22;13311;51.386;0.016;2023-10-09T07:01:06;17.60;91.90
25360;DHT22;13311;51.386;0.016;2023-10-09T07:06:26;17.70;91.80
25360;DHT22;13311;51.386;0.016;2023-10-09T07:16:41;17.80;92.10
25360;DHT22;13311;51.386;0.016;2023-10-09T07:21:57;18.10;92.00
25360;DHT22;13311;51.386;0.016;2023-10-09T07:27:04;18.20;92.00
25360;DHT22;13311;51.386;0.016;2023-10-09T07:32:10;18.60;91.80
25360;DHT22;13311;51.386;0.016;2023-10-09T07:37:23;19.10;90.90
25360;DHT22;13311;51.386;0.016;2023-10-09T07:42:25;19.50;90.40
25360;DHT22;13311;51.386;0.016;2023-10-09T07:47:41;19.70;89.90
25360;DHT22;13311;51.386;0.016;2023-10-09T07:53:02;20.00;89.60
25360;DHT22;13311;51.386;0.016;2023-10-09T07:58:15;20.20;88.60
25360;DHT22;13311;51.386;0.016;2023-10-09T08:03:16;20.60;86.40
25360;DHT22;13311;51.386;0.016;2023-10-09T08:08:24;20.60;86.40
25360;DHT22;13311;51.386;0.016;2023-10-09T08:13:34;20.50;87.00
25360;DHT22;13311;51.386;0.016;2023-10-09T08:18:55;20.50;87.20
25360;DHT22;13311;51.386;0.016;2023-10-09T08:23:57;20.60;87.10
25360;DHT22;13311;51.386;0.016;2023-10-09T08:29:05;20.40;87.30
25360;DHT22;13311;51.386;0.016;2023-10-09T08:34:18;20.60;87.00
25360;DHT22;13311;51.386;0.016;2023-10-09T08:39:25;20.50;87.50
25360;DHT22;13311;51.386;0.016;2023-10-09T08:44:26;20.60;86.50
25360;DHT22;13311;51.386;0.016;2023-10-09T08:49:32;20.80;85.00
25360;DHT22;13311;51.386;0.016;2023-10-09T08:54:33;21.10;83.30
25360;DHT22;13311;51.386;0.016;2023-10-09T08:59:41;21.30;84.10
25360;DHT22;13311;51.386;0.016;2023-10-09T09:04:42;21.50;83.70
25360;DHT22;13311;51.386;0.016;2023-10-09T09:09:56;21.80;81.10
25360;DHT22;13311;51.386;0.016;2023-10-09T09:14:57;21.90;82.20
25360;DHT22;13311;51.386;0.016;2023-10-09T09:19:58;22.00;81.70
25360;DHT22;13311;51.386;0.016;2023-10-09T09:24:59;22.10;81.70
25360;DHT22;13311;51.386;0.016;2023-10-09T09:30:03;22.20;80.90
25360;DHT22;13311;51.386;0.016;2023-10-09T09:35:25;22.30;80.60
25360;DHT22;13311;51.386;0.016;2023-10-09T09:40:28;22.40;81.20
25360;DHT22;13311;51.386;0.016;2023-10-09T09:45:29;22.60;81.30
25360;DHT22;13311;51.386;0.016;2023-10-09T09:50:30;22.90;80.10
25360;DHT22;13311;51.386;0.016;2023-10-09T09:55:34;23.20;79.40
25360;DHT22;13311;51.386;0.016;2023-10-09T10:00:36;23.20;79.10
25360;DHT22;13311;51.386;0.016;2023-10-09T10:05:42;23.40;79.70
25360;DHT22;13311;51.386;0.016;2023-10-09T10:10:47;23.60;78.40
25360;DHT22;13311;51.386;0.016;2023-10-09T10:21:14;23.80;78.60
25360;DHT22;13311;51.386;0.016;2023-10-09T10:26:29;24.10;78.60
25360;DHT22;13311;51.386;0.016;2023-10-09T10:36:54;24.50;77.30
25360;DHT22;13311;51.386;0.016;2023-10-09T10:42:01;24.60;77.50
25360;DHT22;13311;51.386;0.016;2023-10-09T10:47:06;24.70;77.00
25360;DHT22;13311;51.386;0.016;2023-10-09T10:52:23;24.70;77.50
25360;DHT22;13311;51.386;0.016;2023-10-09T10:57:36;24.90;77.00
25360;DHT22;13311;51.386;0.016;2023-10-09T11:02:54;25.00;76.90
25360;DHT22;13311;51.386;0.016;2023-10-09T11:07:58;25.40;76.00
25360;DHT22;13311;51.386;0.016;2023-10-09T11:13:01;25.50;75.20
25360;DHT22;13311;51.386;0.016;2023-10-09T11:18:10;25.50;75.90
25360;DHT22;13311;51.386;0.016;2023-10-09T11:23:22;25.60;76.00
25360;DHT22;13311;51.386;0.016;2023-10-09T11:28:35;25.50;76.40
25360;DHT22;13311;51.386;0.016;2023-10-09T11:33:57;25.70;74.60
25360;DHT22;13311;51.386;0.016;2023-10-09T11:39:02;26.00;72.90
25360;DHT22;13311;51.386;0.016;2023-10-09T11:44:38;26.30;73.50
25360;DHT22;13311;51.386;0.016;2023-10-09T11:49:55;26.50;73.50
25360;DHT22;13311;51.386;0.016;2023-10-09T11:55:03;26.80;72.90
25360;DHT22;13311;51.386;0.016;2023-10-09T12:00:07;27.10;72.40
25360;DHT22;13311;51.386;0.016;2023-10-09T12:05:12;27.30;72.50
25360;DHT22;13311;51.386;0.016;2023-10-09T12:10:17;27.40;72.40
25360;DHT22;13311;51.386;0.016;2023-10-09T12:15:24;27.50;71.50
25360;DHT22;13311;51.386;0.016;2023-10-09T12:20:25;27.60;72.00
25360;DHT22;13311;51.386;0.016;2023-10-09T12:25:33;27.70;71.10
25360;DHT22;13311;51.386;0.016;2023-10-09T12:30:35;27.70;71.30
25360;DHT22;13311;51.386;0.016;2023-10-09T12:35:40;27.60;70.40
25360;DHT22;13311;51.386;0.016;2023-10-09T12:40:41;27.60;72.80
25360;DHT22;13311;51.386;0.016;2023-10-09T12:45:50;27.50;73.40
25360;DHT22;13311;51.386;0.016;2023-10-09T12:50:51;27.40;73.70
25360;DHT22;13311;51.386;0.016;2023-10-09T12:55:54;27.20;74.20
25360;DHT22;13311;51.386;0.016;2023-10-09T13:00:56;27.20;70.60
25360;DHT22;13311;51.386;0.016;2023-10-09T13:06:09;27.40;69.90
25360;DHT22;13311;51.386;0.016;2023-10-09T13:11:13;27.70;72.70
25360;DHT22;13311;51.386;0.016;2023-10-09T13:16:19;27.90;72.80
25360;DHT22;13311;51.386;0.016;2023-10-09T13:21:28;28.00;72.10
25360;DHT22;13311;51.386;0.016;2023-10-09T13:26:32;28.00;68.30
25360;DHT22;13311;51.386;0.016;2023-10-09T13:31:35;28.20;72.60
25360;DHT22;13311;51.386;0.016;2023-10-09T13:36:38;28.20;72.80
25360;DHT22;13311;51.386;0.016;2023-10-09T13:41:39;28.00;73.20
25360;DHT22;13311;51.386;0.016;2023-10-09T13:46:42;28.00;73.00
25360;DHT22;13311;51.386;0.016;2023-10-09T13:51:43;27.90;70.80
25360;DHT22;13311;51.386;0.016;2023-10-09T13:56:44;27.80;74.00
25360;DHT22;13311;51.386;0.016;2023-10-09T14:01:45;27.80;74.40
25360;DHT22;13311;51.386;0.016;2023-10-09T14:06:48;27.70;74.40
25360;DHT22;13311;51.386;0.016;2023-10-09T14:11:52;27.70;74.40
25360;DHT22;13311;51.386;0.016;2023-10-09T14:16:52;27.60;73.50
25360;DHT22;13311;51.386;0.016;2023-10-09T14:21:57;27.80;74.60
25360;DHT22;13311;51.386;0.016;2023-10-09T14:27:02;27.70;74.50
25360;DHT22;13311;51.386;0.016;2023-10-09T14:32:04;27.70;74.20
25360;DHT22;13311;51.386;0.016;2023-10-09T14:37:06;27.70;74.40
25360;DHT22;13311;51.386;0.016;2023-10-09T14:42:07;27.80;73.70
25360;DHT22;13311;51.386;0.016;2023-10-09T14:47:11;27.80;73.80
25360;DHT22;13311;51.386;0.016;2023-10-09T14:52:15;27.80;73.60
25360;DHT22;13311;51.386;0.016;2023-10-09T14:57:20;27.80;74.80
25360;DHT22;13311;51.386;0.016;2023-10-09T15:02:21;27.70;74.50
25360;DHT22;13311;51.386;0.016;2023-10-09T15:07:24;27.60;74.20
25360;DHT22;13311;51.386;0.016;2023-10-09T15:12:24;27.50;74.30
25360;DHT22;13311;51.386;0.016;2023-10-09T15:17:26;27.50;74.90
25360;DHT22;13311;51.386;0.016;2023-10-09T15:22:26;27.40;73.50
25360;DHT22;13311;51.386;0.016;2023-10-09T15:27:35;27.50;74.60
25360;DHT22;13311;51.386;0.016;2023-10-09T15:32:40;27.40;73.20
25360;DHT22;13311;51.386;0.016;2023-10-09T15:37:42;27.40;74.00
25360;DHT22;13311;51.386;0.016;2023-10-09T15:42:46;27.50;74.70
25360;DHT22;13311;51.386;0.016;2023-10-09T15:47:50;27.30;73.30
25360;DHT22;13311;51.386;0.016;2023-10-09T15:52:52;27.30;73.90
25360;DHT22;13311;51.386;0.016;2023-10-09T15:57:54;27.40;74.60
25360;DHT22;13311;51.386;0.016;2023-10-09T16:02:55;27.40;74.70
25360;DHT22;13311;51.386;0.016;2023-10-09T16:07:57;27.30;74.40
25360;DHT22;13311;51.386;0.016;2023-10-09T16:12:58;27.30;74.90
25360;DHT22;13311;51.386;0.016;2023-10-09T16:17:58;27.20;74.70
25360;DHT22;13311;51.386;0.016;2023-10-09T16:22:59;27.20;74.80
25360;DHT22;13311;51.386;0.016;2023-10-09T16:28:04;27.20;75.10
25360;DHT22;13311;51.386;0.016;2023-10-09T16:33:05;27.20;75.20
25360;DHT22;13311;51.386;0.016;2023-10-09T16:38:06;27.10;74.90
25360;DHT22;13311;51.386;0.016;2023-10-09T16:43:12;27.00;75.30
25360;DHT22;13311;51.386;0.016;2023-10-09T16:48:13;27.00;75.30
25360;DHT22;13311;51.386;0.016;2023-10-09T16:53:15;26.90;75.60
25360;DHT22;13311;51.386;0.016;2023-10-09T16:58:17;26.60;75.10
25360;DHT22;13311;51.386;0.016;2023-10-09T17:03:17;26.10;76.80
25360;DHT22;13311;51.386;0.016;2023-10-09T17:08:21;25.90;77.20
25360;DHT22;13311;51.386;0.016;2023-10-09T17:13:24;25.70;77.70
25360;DHT22;13311;51.386;0.016;2023-10-09T17:18:26;25.50;78.40
25360;DHT22;13311;51.386;0.016;2023-10-09T17:23:27;25.40;79.00
25360;DHT22;13311;51.386;0.016;2023-10-09T17:28:28;25.20;79.80
25360;DHT22;13311;51.386;0.016;2023-10-09T17:33:30;25.00;80.50
25360;DHT22;13311;51.386;0.016;2023-10-09T17:38:32;24.80;81.40
25360;DHT22;13311;51.386;0.016;2023-10-09T17:43:33;24.60;82.50
25360;DHT22;13311;51.386;0.016;2023-10-09T17:48:34;24.40;83.50
25360;DHT22;13311;51.386;0.016;2023-10-09T17:53:35;24.30;84.00
25360;DHT22;13311;51.386;0.016;2023-10-09T17:58:38;24.10;85.20
25360;DHT22;13311;51.386;0.016;2023-10-09T18:03:44;24.00;85.00
25360;DHT22;13311;51.386;0.016;2023-10-09T18:08:45;23.90;85.70
25360;DHT22;13311;51.386;0.016;2023-10-09T18:13:48;23.70;86.30
25360;DHT22;13311;51.386;0.016;2023-10-09T18:18:49;23.70;86.50
25360;DHT22;13311;51.386;0.016;2023-10-09T18:23:53;23.60;87.80
25360;DHT22;13311;51.386;0.016;2023-10-09T18:28:58;23.40;87.40
25360;DHT22;13311;51.386;0.016;2023-10-09T18:33:59;23.40;87.50
25360;DHT22;13311;51.386;0.016;2023-10-09T18:39:00;23.30;87.60
25360;DHT22;13311;51.386;0.016;2023-10-09T18:44:01;23.20;87.90
25360;DHT22;13311;51.386;0.016;2023-10-09T18:49:05;23.10;88.30
25360;DHT22;13311;51.386;0.016;2023-10-09T18:54:06;22.90;88.50
25360;DHT22;13311;51.386;0.016;2023-10-09T18:59:06;22.80;88.80
25360;DHT22;13311;51.386;0.016;2023-10-09T19:04:08;22.60;89.20
25360;DHT22;13311;51.386;0.016;2023-10-09T19:09:09;22.50;89.60
25360;DHT22;13311;51.386;0.016;2023-10-09T19:14:12;22.50;89.70
25360;DHT22;13311;51.386;0.016;2023-10-09T19:19:14;22.40;90.00
25360;DHT22;13311;51.386;0.016;2023-10-09T19:24:15;22.30;89.90
25360;DHT22;13311;51.386;0.016;2023-10-09T19:29:16;22.30;90.00
25360;DHT22;13311;51.386;0.016;2023-10-09T19:34:17;22.20;90.00
25360;DHT22;13311;51.386;0.016;2023-10-09T19:39:17;22.10;89.90
25360;DHT22;13311;51.386;0.016;2023-10-09T19:44:18;22.00;90.00
25360;DHT22;13311;51.386;0.016;2023-10-09T19:49:19;21.90;90.10
25360;DHT22;13311;51.386;0.016;2023-10-09T19:54:19;21.80;90.20
25360;DHT22;13311;51.386;0.016;2023-10-09T19:59:21;21.70;90.20
25360;DHT22;13311;51.386;0.016;2023-10-09T20:04:22;21.60;90.30
25360;DHT22;13311;51.386;0.016;2023-10-09T20:09:25;21.60;90.40
25360;DHT22;13311;51.386;0.016;2023-10-09T20:14:27;21.40;90.50
25360;DHT22;13311;51.386;0.016;2023-10-09T20:19:31;21.40;90.60
25360;DHT22;13311;51.386;0.016;2023-10-09T20:24:32;21.30;90.60
25360;DHT22;13311;51.386;0.016;2023-10-09T20:29:33;21.20;90.70
25360;DHT22;13311;51.386;0.016;2023-10-09T20:34:37;21.20;90.70
25360;DHT22;13311;51.386;0.016;2023-10-09T20:39:38;21.20;90.90
25360;DHT22;13311;51.386;0.016;2023-10-09T20:44:38;21.10;90.80
25360;DHT22;13311;51.386;0.016;2023-10-09T20:49:39;21.10;90.90
25360;DHT22;13311;51.386;0.016;2023-10-09T20:54:43;21.10;91.00
25360;DHT22;13311;51.386;0.016;2023-10-09T20:59:45;21.00;91.00
25360;DHT22;13311;51.386;0.016;2023-10-09T21:04:46;21.00;91.00
25360;DHT22;13311;51.386;0.016;2023-10-09T21:09:47;20.90;91.10
25360;DHT22;13311;51.386;0.016;2023-10-09T21:14:48;20.90;91.10
25360;DHT22;13311;51.386;0.016;2023-10-09T21:19:49;20.80;91.20
25360;DHT22;13311;51.386;0.016;2023-10-09T21:24:49;20.70;91.30
25360;DHT22;13311;51.386;0.016;2023-10-09T21:29:50;20.60;91.30
25360;DHT22;13311;51.386;0.016;2023-10-09T21:34:51;20.50;91.40
25360;DHT22;13311;51.386;0.016;2023-10-09T21:39:52;20.50;91.50
25360;DHT22;13311;51.386;0.016;2023-10-09T21:44:52;20.50;91.60
25360;DHT22;13311;51.386;0.016;2023-10-09T21:49:53;20.40;91.60
25360;DHT22;13311;51.386;0.016;2023-10-09T21:54:55;20.40;91.50
25360;DHT22;13311;51.386;0.016;2023-10-09T21:59:55;20.30;91.60
25360;DHT22;13311;51.386;0.016;2023-10-09T22:04:57;20.30;91.80
25360;DHT22;13311;51.386;0.016;2023-10-09T22:09:58;20.30;91.80
25360;DHT22;13311;51.386;0.016;2023-10-09T22:14:59;20.20;91.90
25360;DHT22;13311;51.386;0.016;2023-10-09T22:20:06;20.20;92.00
25360;DHT22;13311;51.386;0.016;2023-10-09T22:25:07;20.20;92.10
25360;DHT22;13311;51.386;0.016;2023-10-09T22:30:08;20.20;92.10
25360;DHT22;13311;51.386;0.016;2023-10-09T22:35:12;20.20;92.20
25360;DHT22;13311;51.386;0.016;2023-10-09T22:40:14;20.20;92.60
25360;DHT22;13311;51.386;0.016;2023-10-09T22:45:26;20.20;92.40
25360;DHT22;13311;51.386;0.016;2023-10-09T22:50:35;20.20;92.50
25360;DHT22;13311;51.386;0.016;2023-10-09T22:55:35;20.20;92.60
25360;DHT22;13311;51.386;0.016;2023-10-09T23:00:40;20.20;92.70
25360;DHT22;13311;51.386;0.016;2023-10-09T23:05:49;20.10;92.80
25360;DHT22;13311;51.386;0.016;2023-10-09T23:10:56;20.10;93.00
25360;DHT22;13311;51.386;0.016;2023-10-09T23:16:09;20.20;92.70
25360;DHT22;13311;51.386;0.016;2023-10-09T23:21:14;20.10;92.50
25360;DHT22;13311;51.386;0.016;2023-10-09T23:26:22;20.20;92.50
25360;DHT22;13311;51.386;0.016;2023-10-09T23:31:26;20.10;92.30
25360;DHT22;13311;51.386;0.016;2023-10-09T23:36:35;20.00;92.40
25360;DHT22;13311;51.386;0.016;2023-10-09T23:41:42;20.00;92.40
25360;DHT22;13311;51.386;0.016;2023-10-09T23:46:58;19.90;92.50
25360;DHT22;13311;51.386;0.016;2023-10-09T23:51:59;19.80;92.60
25360;DHT22;13311;51.386;0.016;2023-10-09T23:57:06;19.70;92.70
